Alex Bay, NY

12:34 AM EST on December 25, 2014 (GMT -0500)
Wheeler-Sack Army Air Field | Change Station
CLOSE
Current Station
Airport
Location: Fort Drum,
Elevation: 679 ft
Nearby Weather Stations

Elev 679 ft 44.06 °N, 75.72 °W | Updated 36 minutes ago

Overcast
Overcast
48 °F
Feels Like 48 °F
N
15
Wind Variable Wind from SE

Today
High -- | Low -- °F
--% Chance of Precip.
Yesterday
High -- | Low -- °F
Precip. -- in
7:38 AM 4:29 PM
Waxing Crescent, 13% visible
Pressure 29.38 in
Visibility 10.0 miles
Clouds Clear
Dew Point 45 °F
Humidity 87%
Rainfall 0.11 in
Snow Depth Not available.
UV 0 out of 12
Pollen .10 out of 12
Air Quality Not available.
Flu Activity Not available.
METAR KGTB 250458Z AUTO 14013KT 10SM CLR 09/07 A2937 RMK AO2 SLP948

More Conditions Fewer Conditions

Pressure 29.38 in
Visibility 10.0 miles
Clouds Clear
Dew Point 45 °F
Humidity 87%
Rainfall 0.11 in
Snow Depth Not available.
UV 0 out of 12
Pollen .10 out of 12
Air Quality Not available.
Flu Activity Not available.
METAR KGTB 250458Z AUTO 14013KT 10SM CLR 09/07 A2937 RMK AO2 SLP948

More Conditions Fewer Conditions

10-Day Weather Forecast

Almanac

Astronomy

Dec. 25, 2014 Rise Set
Actual Time
Civil Twilight
Nautical Twilight
Astronomical Twilight
Moon
Length of Visible Light
Length of Day
Tomorrow will be .
, % of the Moon is Illuminated

Today's Extremes

State Highs State Lows

Community

WunderPhotos

Upload Photos

1,780,244 photos uploaded!

WunderBlogs® & News

Nearby

Air Quality

  Air Quality AQ Index Pollutant
Not available.

Snow Depth

Station Depth Elevation

Earthquake Activity

City Distance Mag. Time & Date
Minimum magnitude displayed is 2.5.

Coastal Water Temperatures

Place Temperature

Nearby Weather Stations